createdAt,value
2023-02-21T00:00:53.031Z,28.87
2023-02-21T00:03:38.373Z,31.23
2023-02-21T00:06:26.839Z,31.20
2023-02-21T00:09:11.988Z,32.03
2023-02-21T00:12:01.324Z,33.10
2023-02-21T00:14:47.971Z,34.87
2023-02-21T00:17:33.700Z,34.77
2023-02-21T00:20:19.012Z,37.20
2023-02-21T00:23:04.503Z,37.60
2023-02-21T00:25:49.550Z,41.57
2023-02-21T00:28:34.840Z,41.43
2023-02-21T00:31:21.891Z,43.63
2023-02-21T00:34:07.106Z,43.43
2023-02-21T00:36:52.519Z,42.67
2023-02-21T00:39:37.872Z,43.80
2023-02-21T00:42:23.181Z,42.90
2023-02-21T00:45:08.474Z,45.07
2023-02-21T00:47:55.381Z,46.43
2023-02-21T00:50:41.731Z,43.67
2023-02-21T00:53:27.103Z,44.27
2023-02-21T00:56:12.473Z,46.10
2023-02-21T00:58:57.843Z,46.67
2023-02-21T01:01:43.166Z,42.37
2023-02-21T01:04:29.592Z,39.33
2023-02-21T01:07:15.381Z,38.93
2023-02-21T01:10:00.800Z,41.60
2023-02-21T01:12:46.174Z,40.37
2023-02-21T01:15:31.520Z,43.80
2023-02-21T01:18:16.926Z,42.83
2023-02-21T01:21:03.495Z,45.10
2023-02-21T01:23:48.782Z,50.73
2023-02-21T01:26:34.117Z,50.13
2023-02-21T01:29:19.298Z,50.43
2023-02-21T01:32:04.900Z,50.77
2023-02-21T01:34:49.946Z,51.83
2023-02-21T01:37:36.657Z,50.67
2023-02-21T01:40:22.785Z,53.80
2023-02-21T01:43:08.272Z,50.90
2023-02-21T01:46:06.357Z,46.33
2023-02-21T01:48:53.864Z,46.10
2023-02-21T01:51:42.051Z,45.10
2023-02-21T01:54:30.816Z,46.37
2023-02-21T01:57:18.641Z,43.07
2023-02-21T02:00:03.897Z,43.13
2023-02-21T02:02:55.745Z,39.77
2023-02-21T02:05:41.116Z,39.63
2023-02-21T02:08:26.402Z,41.67
2023-02-21T02:11:22.398Z,41.20
2023-02-21T02:14:07.915Z,38.47
2023-02-21T02:16:41.665Z,38.67
2023-02-21T02:19:48.718Z,41.20
2023-02-21T02:22:40.477Z,40.77
2023-02-21T02:25:19.284Z,37.30
2023-02-21T02:27:58.324Z,40.33
2023-02-21T02:30:46.890Z,40.27
2023-02-21T02:33:33.751Z,37.20
2023-02-21T02:36:06.976Z,44.30
2023-02-21T02:38:39.017Z,42.27
2023-02-21T02:41:11.709Z,41.47
2023-02-21T02:43:43.787Z,39.00
2023-02-21T02:46:16.714Z,40.03
2023-02-21T02:48:45.974Z,38.50
2023-02-21T02:51:17.064Z,39.27
2023-02-21T02:53:44.976Z,39.13
2023-02-21T02:56:16.669Z,38.00
2023-02-21T02:58:47.872Z,37.00
2023-02-21T03:01:30.683Z,35.67
2023-02-21T03:04:11.027Z,35.80
2023-02-21T03:06:46.870Z,34.97
2023-02-21T03:09:19.233Z,34.67
2023-02-21T03:11:53.305Z,33.83
2023-02-21T03:14:22.800Z,33.93
2023-02-21T03:16:53.122Z,35.73
2023-02-21T03:19:24.489Z,36.37
2023-02-21T03:21:56.861Z,35.73
2023-02-21T03:24:25.539Z,34.77
2023-02-21T03:26:55.573Z,33.87
2023-02-21T03:29:23.540Z,31.87
2023-02-21T03:31:56.623Z,37.13
2023-02-21T03:34:24.482Z,34.80
2023-02-21T03:36:53.624Z,36.73
2023-02-21T03:39:21.494Z,39.67
2023-02-21T03:41:49.261Z,37.23
2023-02-21T03:44:18.121Z,40.87
2023-02-21T03:46:46.068Z,38.80
2023-02-21T03:49:14.831Z,44.87
2023-02-21T03:51:42.589Z,44.63
2023-02-21T03:54:11.841Z,45.87
2023-02-21T03:56:42.241Z,43.43
2023-02-21T03:59:10.611Z,42.93
2023-02-21T04:01:39.784Z,42.33
2023-02-21T04:04:07.577Z,40.67
2023-02-21T04:06:35.346Z,40.57
2023-02-21T04:09:03.134Z,36.40
2023-02-21T04:11:32.474Z,39.03
2023-02-21T04:14:00.154Z,37.10
2023-02-21T04:16:27.940Z,38.03
2023-02-21T04:18:55.756Z,37.13
2023-02-21T04:21:23.555Z,40.17
2023-02-21T04:23:51.361Z,40.17
2023-02-21T04:26:19.218Z,39.80
2023-02-21T04:28:48.884Z,41.23
2023-02-21T04:31:17.170Z,41.70
2023-02-21T04:33:45.655Z,41.37
2023-02-21T04:36:13.423Z,39.47
2023-02-21T04:38:42.301Z,39.90
2023-02-21T04:41:10.086Z,38.77
2023-02-21T04:43:37.959Z,42.43
2023-02-21T04:46:07.309Z,43.43
2023-02-21T04:48:35.071Z,43.30
2023-02-21T04:51:14.807Z,46.87
2023-02-21T04:53:43.147Z,42.17
2023-02-21T04:56:12.713Z,46.20
2023-02-21T04:58:45.336Z,46.73
2023-02-21T05:01:16.424Z,41.53
2023-02-21T05:03:44.462Z,46.33
2023-02-21T05:06:12.363Z,48.93
2023-02-21T05:08:40.214Z,51.53
2023-02-21T05:11:08.844Z,52.70
2023-02-21T05:13:36.713Z,48.23
2023-02-21T05:16:04.507Z,48.80
2023-02-21T05:18:34.622Z,45.37
2023-02-21T05:21:03.465Z,46.80
2023-02-21T05:23:38.488Z,46.43
2023-02-21T05:26:08.482Z,45.10
2023-02-21T05:28:36.693Z,49.60
2023-02-21T05:31:04.697Z,46.47
2023-02-21T05:33:34.468Z,51.30
2023-02-21T05:36:02.861Z,49.97
2023-02-21T05:38:30.869Z,50.40
2023-02-21T05:40:58.729Z,47.53
2023-02-21T05:43:33.648Z,48.53
2023-02-21T05:46:01.447Z,47.67
2023-02-21T05:48:29.248Z,47.07
2023-02-21T05:50:58.487Z,45.53
2023-02-21T05:53:26.269Z,43.47
2023-02-21T05:55:53.998Z,45.70
2023-02-21T05:58:21.808Z,46.33
2023-02-21T06:00:49.530Z,46.10
2023-02-21T06:03:17.431Z,42.53
2023-02-21T06:05:45.264Z,44.83
2023-02-21T06:08:14.378Z,46.90
2023-02-21T06:10:42.150Z,45.97
2023-02-21T06:13:09.998Z,47.90
2023-02-21T06:15:37.792Z,48.03
2023-02-21T06:18:05.646Z,47.60
2023-02-21T06:20:33.549Z,47.07
2023-02-21T06:23:01.358Z,47.90
2023-02-21T06:25:30.652Z,47.27
2023-02-21T06:27:58.523Z,48.87
2023-02-21T06:30:26.425Z,43.43
2023-02-21T06:32:54.270Z,46.63
2023-02-21T06:35:22.106Z,48.40
2023-02-21T06:37:49.922Z,46.40
2023-02-21T06:40:17.799Z,48.33
2023-02-21T06:42:47.080Z,47.20
2023-02-21T06:45:14.910Z,52.63
2023-02-21T06:47:42.743Z,53.63
2023-02-21T06:50:10.619Z,49.57
2023-02-21T06:52:38.399Z,47.50
2023-02-21T06:55:07.137Z,48.37
2023-02-21T06:57:35.182Z,53.03
2023-02-21T07:00:04.513Z,53.90
2023-02-21T07:02:32.437Z,49.80
2023-02-21T07:05:00.252Z,52.47
2023-02-21T07:07:28.069Z,53.53
2023-02-21T07:09:55.850Z,51.43
2023-02-21T07:12:23.625Z,54.00
2023-02-21T07:14:51.425Z,52.70
2023-02-21T07:17:20.567Z,53.23
2023-02-21T07:19:48.326Z,53.20
2023-02-21T07:22:16.086Z,52.60
2023-02-21T07:24:43.866Z,51.03
2023-02-21T07:27:11.578Z,56.67
2023-02-21T07:29:40.766Z,56.03
2023-02-21T07:32:08.655Z,56.27
2023-02-21T07:34:37.818Z,53.00
2023-02-21T07:37:05.620Z,51.10
2023-02-21T07:39:33.407Z,57.13
2023-02-21T07:42:01.107Z,51.97
2023-02-21T07:44:29.305Z,54.50
2023-02-21T07:46:57.332Z,55.60
2023-02-21T07:49:25.229Z,51.67
2023-02-21T07:51:54.432Z,53.70
2023-02-21T07:54:23.266Z,51.77
2023-02-21T07:56:52.214Z,50.97
2023-02-21T07:59:20.546Z,53.20
2023-02-21T08:01:49.052Z,51.03
2023-02-21T08:04:20.422Z,51.27
2023-02-21T08:06:49.272Z,51.03
2023-02-21T08:09:18.843Z,50.80
2023-02-21T08:11:46.555Z,52.67
2023-02-21T08:14:14.350Z,53.07
2023-02-21T08:16:42.137Z,54.43
2023-02-21T08:19:09.852Z,55.13
2023-02-21T08:21:37.865Z,56.93
2023-02-21T08:24:06.441Z,54.03
2023-02-21T08:26:35.603Z,55.53
2023-02-21T08:29:03.804Z,52.47
2023-02-21T08:31:31.726Z,59.37
2023-02-21T08:33:59.585Z,58.70
2023-02-21T08:36:33.672Z,55.40
2023-02-21T08:39:01.530Z,55.80
2023-02-21T08:41:38.480Z,56.60
2023-02-21T08:44:07.000Z,57.90
2023-02-21T08:46:36.998Z,53.43
2023-02-21T08:49:05.251Z,58.67
2023-02-21T08:51:34.281Z,55.97
2023-02-21T08:54:02.269Z,53.20
2023-02-21T08:56:32.493Z,54.40
2023-02-21T08:59:02.042Z,56.53
2023-02-21T09:01:33.344Z,55.10
2023-02-21T09:04:01.263Z,55.53
2023-02-21T09:06:29.151Z,56.80
2023-02-21T09:08:56.930Z,57.77
2023-02-21T09:11:24.710Z,56.00
2023-02-21T09:13:55.081Z,55.00
2023-02-21T09:16:24.477Z,54.10
2023-02-21T09:18:57.064Z,55.30
2023-02-21T09:21:24.886Z,55.37
2023-02-21T09:23:54.746Z,54.20
2023-02-21T09:26:24.157Z,59.20
2023-02-21T09:28:52.905Z,57.33
2023-02-21T09:31:21.444Z,52.87
2023-02-21T09:33:50.723Z,52.63
2023-02-21T09:36:24.041Z,53.87
2023-02-21T09:38:52.712Z,55.33
2023-02-21T09:41:21.032Z,55.43
2023-02-21T09:43:51.607Z,53.63
2023-02-21T09:46:22.948Z,54.93
2023-02-21T09:48:53.359Z,53.03
2023-02-21T09:51:21.096Z,52.90
2023-02-21T09:53:50.856Z,56.20
2023-02-21T09:56:23.310Z,54.17
2023-02-21T09:58:51.313Z,54.33
2023-02-21T10:01:26.203Z,54.40
2023-02-21T10:04:04.796Z,54.80
2023-02-21T10:06:39.551Z,56.93
2023-02-21T10:09:10.031Z,55.83
2023-02-21T10:11:48.236Z,51.67
2023-02-21T10:14:26.978Z,54.00
2023-02-21T10:16:57.931Z,53.47
2023-02-21T10:19:31.786Z,53.63
2023-02-21T10:22:00.548Z,51.57
2023-02-21T10:24:29.624Z,55.03
2023-02-21T10:27:01.820Z,51.07
2023-02-21T10:29:37.727Z,52.30
2023-02-21T10:32:06.025Z,54.50
2023-02-21T10:34:35.668Z,56.10
2023-02-21T10:37:06.568Z,54.10
2023-02-21T10:39:38.186Z,53.67
2023-02-21T10:42:06.039Z,54.50
2023-02-21T10:44:36.543Z,52.23
2023-02-21T10:47:10.376Z,52.73
2023-02-21T10:49:43.486Z,54.57
2023-02-21T10:52:16.953Z,51.07
2023-02-21T10:55:01.595Z,55.50
2023-02-21T10:57:30.158Z,52.43
2023-02-21T10:59:58.003Z,53.17
2023-02-21T11:02:34.162Z,53.13
2023-02-21T11:05:17.991Z,52.73
2023-02-21T11:08:01.699Z,53.23
2023-02-21T11:10:32.366Z,54.13
2023-02-21T11:13:06.014Z,54.33
2023-02-21T11:15:33.874Z,53.07
2023-02-21T11:18:07.977Z,54.37
2023-02-21T11:20:37.191Z,54.80
2023-02-21T11:23:06.510Z,53.20
2023-02-21T11:25:40.105Z,57.60
2023-02-21T11:28:19.604Z,53.73
2023-02-21T11:30:52.050Z,55.57
2023-02-21T11:33:21.522Z,56.00
2023-02-21T11:35:52.243Z,54.13
2023-02-21T11:38:35.818Z,54.70
2023-02-21T11:41:05.045Z,52.93
2023-02-21T11:43:34.433Z,54.73
2023-02-21T11:46:11.118Z,58.30
2023-02-21T11:48:48.241Z,57.60
2023-02-21T11:51:33.672Z,56.83
2023-02-21T11:54:01.520Z,54.10
2023-02-21T11:56:35.859Z,55.97
2023-02-21T11:59:11.460Z,55.30
2023-02-21T12:01:48.469Z,58.73
2023-02-21T12:04:22.997Z,56.80
2023-02-21T12:06:57.043Z,56.30
2023-02-21T12:09:30.081Z,56.07
2023-02-21T12:12:12.470Z,57.07
2023-02-21T12:14:47.586Z,58.20
2023-02-21T12:17:41.310Z,55.33
2023-02-21T12:20:20.119Z,54.17
2023-02-21T12:23:06.092Z,56.30
2023-02-21T12:25:40.199Z,57.73
2023-02-21T12:28:17.165Z,55.37
2023-02-21T12:31:08.241Z,56.43
2023-02-21T12:33:44.521Z,56.87
2023-02-21T12:36:20.427Z,58.57
2023-02-21T12:38:57.102Z,58.77
2023-02-21T12:41:40.043Z,58.53
2023-02-21T12:46:52.423Z,57.57
2023-02-21T12:49:25.317Z,56.80
2023-02-21T12:51:55.889Z,61.77
2023-02-21T12:54:31.778Z,58.90
2023-02-21T12:57:03.901Z,60.87
2023-02-21T12:59:44.790Z,61.00
2023-02-21T13:02:17.794Z,61.10
2023-02-21T13:04:49.540Z,61.30
2023-02-21T13:07:25.459Z,61.63
2023-02-21T13:10:03.261Z,59.53
2023-02-21T13:12:37.547Z,61.47
2023-02-21T13:15:15.936Z,58.93
2023-02-21T13:17:44.671Z,61.90
2023-02-21T13:20:18.033Z,58.07
2023-02-21T13:23:08.607Z,60.10
2023-02-21T13:25:52.549Z,56.30
2023-02-21T13:28:23.419Z,62.17
2023-02-21T13:30:53.251Z,58.97
2023-02-21T13:33:38.484Z,59.93
2023-02-21T13:36:19.926Z,57.67
2023-02-21T13:38:48.665Z,60.90
2023-02-21T13:41:25.960Z,60.20
2023-02-21T13:43:54.714Z,60.30
2023-02-21T13:46:47.511Z,57.83
2023-02-21T13:49:53.096Z,61.37
2023-02-21T13:52:54.213Z,58.80
2023-02-21T13:55:31.542Z,60.03
2023-02-21T13:58:46.540Z,62.47
2023-02-21T14:01:32.512Z,61.77
2023-02-21T14:04:00.468Z,61.60
2023-02-21T14:06:36.295Z,63.53
2023-02-21T14:09:07.356Z,63.97
2023-02-21T14:11:41.127Z,63.37
2023-02-21T14:14:22.985Z,61.03
2023-02-21T14:16:54.737Z,59.40
2023-02-21T14:19:26.677Z,62.83
2023-02-21T14:22:02.880Z,57.53
2023-02-21T14:24:32.615Z,61.27
2023-02-21T14:27:05.320Z,57.53
2023-02-21T14:29:38.474Z,61.07
2023-02-21T14:32:28.545Z,62.47
2023-02-21T14:34:58.452Z,59.80
2023-02-21T14:37:31.736Z,63.03
2023-02-21T14:40:09.248Z,61.97
2023-02-21T14:42:44.664Z,58.00
2023-02-21T14:45:30.580Z,61.33
2023-02-21T14:48:20.041Z,58.87
2023-02-21T14:51:08.179Z,57.93
2023-02-21T14:53:58.792Z,63.37
2023-02-21T14:56:54.140Z,57.00
2023-02-21T14:59:33.580Z,55.80
2023-02-21T15:02:08.650Z,57.77
2023-02-21T15:04:42.899Z,60.87
2023-02-21T15:07:18.749Z,57.77
2023-02-21T15:09:47.176Z,56.10
2023-02-21T15:12:17.416Z,60.57
2023-02-21T15:14:50.019Z,62.60
2023-02-21T15:17:20.992Z,59.90
2023-02-21T15:20:05.628Z,60.90
2023-02-21T15:22:33.573Z,59.30
2023-02-21T15:25:25.613Z,60.67
2023-02-21T15:27:56.725Z,61.83
2023-02-21T15:30:26.674Z,58.40
2023-02-21T15:32:58.645Z,56.23
2023-02-21T15:35:32.363Z,58.47
2023-02-21T15:38:00.905Z,60.80
2023-02-21T15:40:29.113Z,57.77
2023-02-21T15:42:57.058Z,58.37
2023-02-21T15:45:27.818Z,60.40
2023-02-21T15:47:56.188Z,57.87
2023-02-21T15:50:32.218Z,60.93
2023-02-21T15:53:16.593Z,56.27
2023-02-21T15:55:45.450Z,60.63
2023-02-21T15:58:17.414Z,59.47
2023-02-21T16:00:46.494Z,59.37
2023-02-21T16:03:33.635Z,58.83
2023-02-21T16:06:19.098Z,58.87
2023-02-21T16:09:19.440Z,60.67
2023-02-21T16:11:49.650Z,57.33
2023-02-21T16:14:23.907Z,57.83
2023-02-21T16:17:00.736Z,55.80
2023-02-21T16:19:32.834Z,54.93
2023-02-21T16:22:27.983Z,57.30
2023-02-21T16:25:14.464Z,56.57
2023-02-21T16:27:44.030Z,56.60
2023-02-21T16:30:14.867Z,52.70
2023-02-21T16:32:44.414Z,56.50
2023-02-21T16:35:19.627Z,58.47
2023-02-21T16:37:50.822Z,53.43
2023-02-21T16:40:22.512Z,54.40
2023-02-21T16:42:50.461Z,53.90
2023-02-21T16:45:18.890Z,53.57
2023-02-21T16:47:48.998Z,57.23
2023-02-21T16:50:22.426Z,55.83
2023-02-21T16:52:53.663Z,54.00
2023-02-21T16:55:21.573Z,56.27
2023-02-21T16:57:51.319Z,57.27
2023-02-21T17:00:22.176Z,60.50
2023-02-21T17:02:50.922Z,60.17
2023-02-21T17:05:21.147Z,58.10
2023-02-21T17:07:49.574Z,58.50
2023-02-21T17:10:18.959Z,58.63
2023-02-21T17:12:46.945Z,59.50
2023-02-21T17:15:14.882Z,59.40
2023-02-21T17:17:44.493Z,57.10
2023-02-21T17:20:19.666Z,57.67
2023-02-21T17:22:48.443Z,55.77
2023-02-21T17:25:17.872Z,55.43
2023-02-21T17:27:45.677Z,55.47
2023-02-21T17:30:14.547Z,52.10
2023-02-21T17:32:43.667Z,58.17
2023-02-21T17:35:13.476Z,56.87
2023-02-21T17:37:41.547Z,52.30
2023-02-21T17:40:10.184Z,57.07
2023-02-21T17:42:40.739Z,55.47
2023-02-21T17:45:09.543Z,58.70
2023-02-21T17:47:37.450Z,57.47
2023-02-21T17:50:06.713Z,59.13
2023-02-21T17:52:34.652Z,56.00
2023-02-21T17:55:07.883Z,56.60
2023-02-21T17:57:38.069Z,57.00
2023-02-21T18:00:14.048Z,59.77
2023-02-21T18:02:41.855Z,55.13
2023-02-21T18:05:10.068Z,55.50
2023-02-21T18:07:37.961Z,53.23
2023-02-21T18:10:06.983Z,55.53
2023-02-21T18:12:37.208Z,56.10
2023-02-21T18:15:05.632Z,57.70
2023-02-21T18:17:34.750Z,57.83
2023-02-21T18:20:02.530Z,55.67
2023-02-21T18:22:30.286Z,56.60
2023-02-21T18:24:58.186Z,53.37
2023-02-21T18:27:26.070Z,53.83
2023-02-21T18:29:56.010Z,54.87
2023-02-21T18:32:23.986Z,58.03
2023-02-21T18:34:53.219Z,53.53
2023-02-21T18:37:21.300Z,54.43
2023-02-21T18:39:52.515Z,57.97
2023-02-21T18:42:21.277Z,59.43
2023-02-21T18:44:49.173Z,57.90
2023-02-21T18:47:19.361Z,58.80
2023-02-21T18:49:48.091Z,58.87
2023-02-21T18:52:20.852Z,56.43
2023-02-21T18:54:49.899Z,58.97
2023-02-21T18:57:18.316Z,58.37
2023-02-21T18:59:46.242Z,61.33
2023-02-21T19:02:15.909Z,58.03
2023-02-21T19:04:44.183Z,61.63
2023-02-21T19:07:13.952Z,61.17
2023-02-21T19:09:43.042Z,58.23
2023-02-21T19:12:10.748Z,61.17
2023-02-21T19:14:39.263Z,61.77
2023-02-21T19:17:08.175Z,58.43
2023-02-21T19:19:36.062Z,60.80
2023-02-21T19:22:03.836Z,59.43
2023-02-21T19:24:31.585Z,59.57
2023-02-21T19:27:00.876Z,59.53
2023-02-21T19:29:28.729Z,58.20
2023-02-21T19:31:56.639Z,58.27
2023-02-21T19:34:24.497Z,60.00
2023-02-21T19:36:52.337Z,61.23
2023-02-21T19:39:20.154Z,62.00
2023-02-21T19:41:48.141Z,60.37
2023-02-21T19:44:17.293Z,58.60
2023-02-21T19:46:45.407Z,59.00
2023-02-21T19:49:18.080Z,60.17
2023-02-21T19:51:46.877Z,60.17
2023-02-21T19:54:15.118Z,62.50
2023-02-21T19:56:42.915Z,60.37
2023-02-21T19:59:10.731Z,59.87
2023-02-21T20:01:40.024Z,64.47
2023-02-21T20:04:07.867Z,62.50
2023-02-21T20:06:37.533Z,59.23
2023-02-21T20:09:07.013Z,61.07
2023-02-21T20:11:35.723Z,59.87
2023-02-21T20:14:04.004Z,59.40
2023-02-21T20:16:39.963Z,57.60
2023-02-21T20:19:08.454Z,61.33
2023-02-21T20:21:36.896Z,60.53
2023-02-21T20:24:07.077Z,60.83
2023-02-21T20:26:34.920Z,61.77
2023-02-21T20:29:02.917Z,65.90
2023-02-21T20:31:32.780Z,64.90
2023-02-21T20:34:02.934Z,62.83
2023-02-21T20:36:33.190Z,61.83
2023-02-21T20:39:01.467Z,62.67
2023-02-21T20:41:31.031Z,63.67
2023-02-21T20:43:58.813Z,65.30
2023-02-21T20:46:27.422Z,67.70
2023-02-21T20:48:55.519Z,68.60
2023-02-21T20:51:30.570Z,67.63
2023-02-21T20:54:00.411Z,68.87
2023-02-21T20:56:32.139Z,70.50
2023-02-21T20:58:59.942Z,70.67
2023-02-21T21:01:27.750Z,63.60
2023-02-21T21:03:56.998Z,73.23
2023-02-21T21:06:26.278Z,68.53
2023-02-21T21:08:55.606Z,66.93
2023-02-21T21:11:23.929Z,68.93
2023-02-21T21:13:51.708Z,72.77
2023-02-21T21:16:20.193Z,73.17
2023-02-21T21:18:48.188Z,69.97
2023-02-21T21:21:16.350Z,71.97
2023-02-21T21:23:44.285Z,72.77
2023-02-21T21:26:14.029Z,71.87
2023-02-21T21:28:41.869Z,73.67
2023-02-21T21:31:09.931Z,73.37
2023-02-21T21:33:37.786Z,75.03
2023-02-21T21:36:09.030Z,75.80
2023-02-21T21:38:38.761Z,72.47
2023-02-21T21:41:13.284Z,71.27
2023-02-21T21:43:43.715Z,78.43
2023-02-21T21:46:12.150Z,70.53
2023-02-21T21:48:43.052Z,73.30
2023-02-21T21:51:11.665Z,72.67
2023-02-21T21:53:39.996Z,74.13
2023-02-21T21:56:08.365Z,68.67
2023-02-21T21:58:36.165Z,73.20
2023-02-21T22:01:06.573Z,68.97
2023-02-21T22:03:34.805Z,68.63
2023-02-21T22:06:02.627Z,70.97
2023-02-21T22:08:31.306Z,71.70
2023-02-21T22:11:00.181Z,71.93
2023-02-21T22:13:29.470Z,72.63
2023-02-21T22:15:57.562Z,75.30
2023-02-21T22:18:26.775Z,71.17
2023-02-21T22:20:54.523Z,69.20
2023-02-21T22:23:24.209Z,73.97
2023-02-21T22:25:52.390Z,72.90
2023-02-21T22:28:20.272Z,75.33
2023-02-21T22:30:48.163Z,70.73
2023-02-21T22:33:18.590Z,76.17
2023-02-21T22:35:48.274Z,72.20
2023-02-21T22:38:17.393Z,73.60
2023-02-21T22:40:49.092Z,74.83
2023-02-21T22:43:20.012Z,73.13
2023-02-21T22:45:50.095Z,75.57
2023-02-21T22:48:20.693Z,76.57
2023-02-21T22:50:50.529Z,80.13
2023-02-21T22:53:19.715Z,83.07
2023-02-21T22:55:51.851Z,86.77
2023-02-21T22:58:21.091Z,95.20
2023-02-21T23:00:49.814Z,90.93
2023-02-21T23:03:18.116Z,90.57
2023-02-21T23:05:47.631Z,96.03
2023-02-21T23:08:18.778Z,91.67
2023-02-21T23:10:46.747Z,92.03
2023-02-21T23:13:18.177Z,85.50
2023-02-21T23:15:46.890Z,94.43
2023-02-21T23:18:20.382Z,98.27
2023-02-21T23:20:49.366Z,97.87
2023-02-21T23:23:18.527Z,92.43
2023-02-21T23:25:46.914Z,89.43
2023-02-21T23:28:16.418Z,94.63
2023-02-21T23:30:46.130Z,91.77
2023-02-21T23:33:15.914Z,99.83
2023-02-21T23:35:44.256Z,96.17
2023-02-21T23:38:15.631Z,95.87
2023-02-21T23:40:45.487Z,95.00
2023-02-21T23:43:14.720Z,94.13
2023-02-21T23:45:42.718Z,92.10
2023-02-21T23:48:15.630Z,97.10
2023-02-21T23:50:46.428Z,92.57
2023-02-21T23:53:15.697Z,94.80
2023-02-21T23:55:46.608Z,89.97
2023-02-21T23:58:16.057Z,89.50
